Dart — OUOV2 — position and weather

sailwx.info

Track history (hours):
 
Tides and Currents Weather Stations Pressure Air Temp Water Temp Dewpoint Dewpoint Depression Visibility Wind Speed Wind Dir Waves Ship Positions

Dart

Last reported at 2014-Jul-22 05:33 UTC. Time now 2014-Jul-22 17:26 UTC.
Position N 64°49' E 011°09'.

Length 66 m; draft 4.5 m.

Type: Tanker. MMSI: 219416000.

Date/timePositionNaut miles runAvg speedWind from/ knotsBaromVisibWave heightAir tempDewpointWater temp
2014-Jul-22 05:33N 64°49' E 011°09'8 8.4
2014-Jul-22 04:33N 64°55' E 011°22'9 8.8
2014-Jul-22 03:33N 65°02' E 011°36'10 8.5
2014-Jul-22 02:26N 65°09' E 011°50'79 8.9
2014-Jul-21 17:32N 66°23' E 012°58'9 9.0
2014-Jul-21 16:33N 66°32' E 012°58'31 7.6
2014-Jul-21 12:30N 66°58' E 013°37'9 9.0
2014-Jul-21 11:32N 67°04' E 013°54'9 9.4
2014-Jul-21 10:33N 67°12' E 014°06'10 9.5
2014-Jul-21 09:33N 67°20' E 014°20'9 8.7
2014-Jul-21 08:34N 67°28' E 014°24'10 9.5
2014-Jul-21 07:33N 67°38' E 014°17'10 9.3
2014-Jul-21 06:32N 67°47' E 014°21'246 8.8
2014-Jul-20 02:32N 70°31' E 022°57'11 9.2
2014-Jul-20 01:23N 70°38' E 023°21'6 7.0
2014-Jul-20 00:32N 70°38' E 023°39'0 0.0
2014-Jul-19 20:13N 70°38' E 023°39'2 2.8
2014-Jul-19 19:26N 70°38' E 023°33'8 8.8
2014-Jul-19 18:29N 70°34' E 023°10'10 9.3
2014-Jul-19 17:26N 70°29' E 022°45'8 9.7
2014-Jul-19 16:33N 70°27' E 022°20'230 9.2
2014-Jul-18 15:29N 67°50' E 014°29'10 9.6
2014-Jul-18 14:28N 67°41' E 014°16'9 9.9
2014-Jul-18 13:33N 67°32' E 014°21'10 9.9
2014-Jul-18 12:34N 67°23' E 014°25'1010.1
2014-Jul-18 11:33N 67°14' E 014°10'1010.1
2014-Jul-18 10:34N 67°06' E 013°57'1010.3
2014-Jul-18 09:33N 66°59' E 013°36'19 8.0
2014-Jul-18 07:13N 66°43' E 013°11'10 9.7
2014-Jul-18 06:10N 66°34' E 013°05'7 8.2
2014-Jul-18 05:18N 66°27' E 012°60'910.2
2014-Jul-18 04:27N 66°18' E 012°56'1210.3
2014-Jul-18 03:16N 66°07' E 012°45'58 9.6
2014-Jul-17 21:14N 65°13' E 011°53'810.4
2014-Jul-17 20:29N 65°05' E 011°47'9 9.9
2014-Jul-17 19:33N 64°58' E 011°34'10 9.8
2014-Jul-17 18:34N 64°52' E 011°16'130 9.0
2014-Jul-17 04:09N 63°14' E 007°60'188 4.6
2014-Jul-15 11:30N 60°25' E 005°05'55 8.7
2014-Jul-15 05:12N 59°30' E 005°13'5 8.3
2014-Jul-15 04:34N 59°25' E 005°14'0 0.0
2014-Jul-15 03:31N 59°25' E 005°14'0 0.0
2014-Jul-15 02:31N 59°25' E 005°14'0 0.0
2014-Jul-15 01:34N 59°25' E 005°14'7 6.9
2014-Jul-15 00:33N 59°18' E 005°20'1010.0
2014-Jul-14 23:34N 59°09' E 005°24'10 9.7
2014-Jul-14 22:34N 59°02' E 005°37'7 7.0
2014-Jul-14 21:34N 58°57' E 005°47'4 4.0
2014-Jul-14 20:32N 58°53' E 005°45'0 0.0
2014-Jul-14 19:32N 58°53' E 005°45'0 0.0
2014-Jul-14 18:32N 58°53' E 005°45'0 0.0
2014-Jul-14 17:32N 58°53' E 005°45'0 0.0
2014-Jul-14 16:32N 58°53' E 005°45'0 0.0
2014-Jul-14 15:33N 58°53' E 005°45'0 0.0
2014-Jul-14 14:32N 58°53' E 005°45'0 0.0
2014-Jul-14 13:32N 58°53' E 005°45'0 0.0
2014-Jul-14 12:32N 58°53' E 005°45'0 0.0
2014-Jul-14 11:32N 58°53' E 005°45'0 0.0
2014-Jul-14 10:32N 58°53' E 005°45'0 0.0
2014-Jul-14 09:32N 58°53' E 005°45'3 3.1
2014-Jul-14 08:34N 58°56' E 005°46'6 5.8
2014-Jul-14 07:33N 59°01' E 005°40'10 9.8
2014-Jul-14 06:33N 59°07' E 005°26'10 9.3
2014-Jul-14 05:31N 59°17' E 005°20'8 8.8
2014-Jul-14 04:34N 59°25' E 005°15'48 9.0
2014-Jul-13 23:15N 60°12' E 005°11'11 9.5
2014-Jul-13 22:07N 60°23' E 005°10'6 9.7
2014-Jul-13 21:32N 60°27' E 005°01'  
Track history (hours):
 
Tides and Currents Weather Stations Pressure Air Temp Water Temp Dewpoint Dewpoint Depression Visibility Wind Speed Wind Dir Waves Ship Positions

Dart

Last reported at 2014-Jul-22 05:33 UTC. Time now 2014-Jul-22 17:26 UTC.
Position N 64°49' E 011°09'.

Length 66 m; draft 4.5 m.

Type: Tanker. MMSI: 219416000.

Date/timePositionNaut miles runAvg speedWind from/ knotsBaromVisibWave heightAir tempDewpointWater temp
2014-Jul-22 05:33N 64°49' E 011°09'8 8.4
2014-Jul-22 04:33N 64°55' E 011°22'9 8.8
2014-Jul-22 03:33N 65°02' E 011°36'10 8.5
2014-Jul-22 02:26N 65°09' E 011°50'79 8.9
2014-Jul-21 17:32N 66°23' E 012°58'9 9.0
2014-Jul-21 16:33N 66°32' E 012°58'31 7.6
2014-Jul-21 12:30N 66°58' E 013°37'9 9.0
2014-Jul-21 11:32N 67°04' E 013°54'9 9.4
2014-Jul-21 10:33N 67°12' E 014°06'10 9.5
2014-Jul-21 09:33N 67°20' E 014°20'9 8.7
2014-Jul-21 08:34N 67°28' E 014°24'10 9.5
2014-Jul-21 07:33N 67°38' E 014°17'10 9.3
2014-Jul-21 06:32N 67°47' E 014°21'246 8.8
2014-Jul-20 02:32N 70°31' E 022°57'11 9.2
2014-Jul-20 01:23N 70°38' E 023°21'6 7.0
2014-Jul-20 00:32N 70°38' E 023°39'0 0.0
2014-Jul-19 20:13N 70°38' E 023°39'2 2.8
2014-Jul-19 19:26N 70°38' E 023°33'8 8.8
2014-Jul-19 18:29N 70°34' E 023°10'10 9.3
2014-Jul-19 17:26N 70°29' E 022°45'8 9.7
2014-Jul-19 16:33N 70°27' E 022°20'230 9.2
2014-Jul-18 15:29N 67°50' E 014°29'10 9.6
2014-Jul-18 14:28N 67°41' E 014°16'9 9.9
2014-Jul-18 13:33N 67°32' E 014°21'10 9.9
2014-Jul-18 12:34N 67°23' E 014°25'1010.1
2014-Jul-18 11:33N 67°14' E 014°10'1010.1
2014-Jul-18 10:34N 67°06' E 013°57'1010.3
2014-Jul-18 09:33N 66°59' E 013°36'19 8.0
2014-Jul-18 07:13N 66°43' E 013°11'10 9.7
2014-Jul-18 06:10N 66°34' E 013°05'7 8.2
2014-Jul-18 05:18N 66°27' E 012°60'910.2
2014-Jul-18 04:27N 66°18' E 012°56'1210.3
2014-Jul-18 03:16N 66°07' E 012°45'58 9.6
2014-Jul-17 21:14N 65°13' E 011°53'810.4
2014-Jul-17 20:29N 65°05' E 011°47'9 9.9
2014-Jul-17 19:33N 64°58' E 011°34'10 9.8
2014-Jul-17 18:34N 64°52' E 011°16'130 9.0
2014-Jul-17 04:09N 63°14' E 007°60'188 4.6
2014-Jul-15 11:30N 60°25' E 005°05'55 8.7
2014-Jul-15 05:12N 59°30' E 005°13'5 8.3
2014-Jul-15 04:34N 59°25' E 005°14'0 0.0
2014-Jul-15 03:31N 59°25' E 005°14'0 0.0
2014-Jul-15 02:31N 59°25' E 005°14'0 0.0
2014-Jul-15 01:34N 59°25' E 005°14'7 6.9
2014-Jul-15 00:33N 59°18' E 005°20'1010.0
2014-Jul-14 23:34N 59°09' E 005°24'10 9.7
2014-Jul-14 22:34N 59°02' E 005°37'7 7.0
2014-Jul-14 21:34N 58°57' E 005°47'4 4.0
2014-Jul-14 20:32N 58°53' E 005°45'0 0.0
2014-Jul-14 19:32N 58°53' E 005°45'0 0.0
2014-Jul-14 18:32N 58°53' E 005°45'0 0.0
2014-Jul-14 17:32N 58°53' E 005°45'0 0.0
2014-Jul-14 16:32N 58°53' E 005°45'0 0.0
2014-Jul-14 15:33N 58°53' E 005°45'0 0.0
2014-Jul-14 14:32N 58°53' E 005°45'0 0.0
2014-Jul-14 13:32N 58°53' E 005°45'0 0.0
2014-Jul-14 12:32N 58°53' E 005°45'0 0.0
2014-Jul-14 11:32N 58°53' E 005°45'0 0.0
2014-Jul-14 10:32N 58°53' E 005°45'0 0.0
2014-Jul-14 09:32N 58°53' E 005°45'3 3.1
2014-Jul-14 08:34N 58°56' E 005°46'6 5.8
2014-Jul-14 07:33N 59°01' E 005°40'10 9.8
2014-Jul-14 06:33N 59°07' E 005°26'10 9.3
2014-Jul-14 05:31N 59°17' E 005°20'8 8.8
2014-Jul-14 04:34N 59°25' E 005°15'48 9.0
2014-Jul-13 23:15N 60°12' E 005°11'11 9.5
2014-Jul-13 22:07N 60°23' E 005°10'6 9.7
2014-Jul-13 21:32N 60°27' E 005°01'  

Dump ship's entire track history